Time;durP1;ratioP1;P1;durP2;ratioP2;P2;SDS_P1;SDS_P2;PMS_P1;PMS_P2;Temp;Humidity;BMP_temperature;BMP_pressure;BME280_temperature;BME280_humidity;BME280_pressure;Samples;Min_cycle;Max_cycle;Signal;HPM_P1;HPM_P2
2021/08/29 00:01:00;;;;;;;;;;;16.00;99.90;;;;;;5056371;28;20044;-78
2021/08/29 00:03:26;;;;;;;3.35;1.90;;;16.00;99.90;;;;;;5051860;28;19927;-79
2021/08/29 00:05:52;;;;;;;2.03;1.65;;;16.10;99.90;;;;;;5056890;28;20145;-78
2021/08/29 00:08:18;;;;;;;2.33;1.45;;;16.10;99.90;;;;;;5053015;28;20045;-79
2021/08/29 00:10:44;;;;;;;1.88;1.42;;;16.10;99.90;;;;;;5044335;28;20375;-79
2021/08/29 00:13:10;;;;;;;;;;;16.10;99.90;;;;;;5039366;28;20494;-79
2021/08/29 00:15:36;;;;;;;1.00;0.95;;;16.10;99.90;;;;;;5060044;28;19917;-79
2021/08/29 00:18:02;;;;;;;8.18;2.40;;;16.10;99.90;;;;;;5053110;28;20037;-78
2021/08/29 00:20:28;;;;;;;2.72;1.67;;;16.10;99.90;;;;;;5058582;28;20090;-81
2021/08/29 00:22:53;;;;;;;;;;;16.10;99.90;;;;;;5054569;28;20072;-80
2021/08/29 00:25:19;;;;;;;2.13;1.17;;;16.10;99.90;;;;;;5057331;28;19960;-78
2021/08/29 00:27:45;;;;;;;2.30;1.73;;;16.10;99.90;;;;;;5050549;28;20048;-79
2021/08/29 00:30:11;;;;;;;;;;;16.10;99.90;;;;;;5042685;28;20049;-79
2021/08/29 00:32:36;;;;;;;1.33;1.17;;;16.20;99.90;;;;;;5050305;28;19916;-79
2021/08/29 00:35:02;;;;;;;;;;;16.20;99.90;;;;;;5051031;28;20068;-78
2021/08/29 00:37:28;;;;;;;1.88;1.48;;;16.20;99.90;;;;;;5050669;28;20355;-78
2021/08/29 00:39:53;;;;;;;;;;;16.20;99.90;;;;;;5018712;28;20052;-80
2021/08/29 00:42:19;;;;;;;6.53;1.75;;;16.20;99.90;;;;;;5050074;28;19932;-81
2021/08/29 00:44:44;;;;;;;;;;;16.20;99.90;;;;;;5065300;28;20044;-77
2021/08/29 00:47:10;;;;;;;4.40;2.35;;;16.20;99.90;;;;;;5048811;28;20290;-79
2021/08/29 00:49:39;;;;;;;;;;;16.20;99.90;;;;;;5034460;28;20098;-78
2021/08/29 00:52:05;;;;;;;3.47;1.50;;;16.20;99.90;;;;;;5049949;28;19947;-79
2021/08/29 00:54:31;;;;;;;4.85;1.10;;;16.10;99.90;;;;;;5050605;28;20053;-81
2021/08/29 00:56:58;;;;;;;;;;;16.10;99.90;;;;;;5051560;28;20102;-80
2021/08/29 00:59:28;;;;;;;2.15;1.42;;;16.10;99.90;;;;;;5090506;28;20035;-79
2021/08/29 01:02:11;;;;;;;1.23;1.13;;;16.20;99.90;;;;;;5054395;28;20044;-78
2021/08/29 01:04:56;;;;;;;3.58;2.03;;;16.20;99.90;;;;;;5044869;28;20032;-76
2021/08/29 01:07:26;;;;;;;3.80;1.35;;;16.10;99.90;;;;;;5059774;28;20059;-77
2021/08/29 01:09:57;;;;;;;3.40;1.63;;;16.10;99.90;;;;;;5059538;28;20066;-80
2021/08/29 01:12:24;;;;;;;3.30;2.00;;;16.20;99.90;;;;;;5049834;28;20447;-81
2021/08/29 01:14:51;;;;;;;2.75;1.35;;;16.10;99.90;;;;;;5044630;28;20496;-77
2021/08/29 01:17:20;;;;;;;4.10;1.85;;;16.10;99.90;;;;;;5052909;28;20049;-80
2021/08/29 01:20:15;;;;;;;1.63;1.17;;;16.10;99.90;;;;;;5059988;28;20041;-78
2021/08/29 01:22:42;;;;;;;2.20;1.35;;;16.10;99.90;;;;;;5052320;28;20486;-79
2021/08/29 01:25:19;;;;;;;2.00;1.17;;;16.10;99.90;;;;;;5057001;28;20054;-78
2021/08/29 01:28:14;;;;;;;4.18;1.45;;;16.10;99.90;;;;;;5075816;28;20040;-79
2021/08/29 01:30:42;;;;;;;1.85;1.33;;;16.10;99.90;;;;;;5053110;28;20049;-77
2021/08/29 01:33:08;;;;;;;7.22;1.30;;;16.10;99.90;;;;;;5058409;28;20045;-81
2021/08/29 01:35:34;;;;;;;;;;;16.10;99.90;;;;;;5068542;28;20068;-78
2021/08/29 01:38:02;;;;;;;1.77;1.20;;;16.10;99.90;;;;;;5060888;28;19925;-80
2021/08/29 01:40:29;;;;;;;0.90;0.80;;;16.10;99.90;;;;;;5067465;28;20051;-78
2021/08/29 01:42:56;;;;;;;2.70;1.35;;;16.10;99.90;;;;;;5044399;28;20048;-78
2021/08/29 01:45:22;;;;;;;1.73;1.20;;;16.10;99.90;;;;;;5052966;28;20167;-79
2021/08/29 01:47:48;;;;;;;0.50;0.50;;;16.10;99.90;;;;;;5056254;28;20072;-77
2021/08/29 01:50:14;;;;;;;;;;;16.10;99.90;;;;;;5068377;28;20048;-80
2021/08/29 01:52:39;;;;;;;5.40;1.20;;;16.10;99.90;;;;;;5067889;28;20011;-80
2021/08/29 01:55:06;;;;;;;1.63;1.30;;;16.10;99.90;;;;;;5063349;28;20041;-78
2021/08/29 01:57:32;;;;;;;1.90;1.65;;;16.00;99.90;;;;;;5056800;28;20095;-79
2021/08/29 01:59:57;;;;;;;1.75;1.10;;;16.00;99.90;;;;;;5068336;28;20048;-79
2021/08/29 02:02:23;;;;;;;;;;;16.00;99.90;;;;;;5040230;28;20143;-81
2021/08/29 02:04:49;;;;;;;7.20;1.73;;;16.00;99.90;;;;;;5064893;28;20432;-79
2021/08/29 02:07:15;;;;;;;;;;;16.00;99.90;;;;;;5039337;28;20147;-79
2021/08/29 02:09:47;;;;;;;1.15;1.05;;;16.00;99.90;;;;;;5056204;28;20011;-79
2021/08/29 02:12:12;;;;;;;1.80;1.00;;;16.00;99.90;;;;;;5055272;28;20087;-81
2021/08/29 02:14:51;;;;;;;2.45;1.48;;;16.00;99.90;;;;;;5063808;28;20076;-78
2021/08/29 02:17:19;;;;;;;1.48;1.30;;;16.00;99.90;;;;;;5036964;28;20045;-76
2021/08/29 02:19:47;;;;;;;1.80;1.27;;;16.00;99.90;;;;;;5058535;28;20490;-79
2021/08/29 02:22:14;;;;;;;2.50;1.70;;;16.00;99.90;;;;;;5052791;28;20063;-78
2021/08/29 02:24:41;;;;;;;5.95;1.98;;;16.00;99.90;;;;;;5058112;28;20040;-79
2021/08/29 02:27:10;;;;;;;2.35;1.30;;;16.00;99.90;;;;;;5060449;28;20425;-79
2021/08/29 02:29:36;;;;;;;2.05;1.25;;;16.10;99.90;;;;;;5067482;28;20039;-77
2021/08/29 02:32:02;;;;;;;4.40;1.95;;;16.10;99.90;;;;;;5053315;28;20656;-78
2021/08/29 02:34:28;;;;;;;;;;;16.10;99.90;;;;;;5067480;28;20136;-80
2021/08/29 02:36:54;;;;;;;1.60;1.10;;;16.00;99.90;;;;;;5057470;28;20007;-81
2021/08/29 02:39:20;;;;;;;2.28;1.85;;;16.00;99.90;;;;;;5067121;28;20052;-80
2021/08/29 02:41:49;;;;;;;2.03;1.10;;;16.00;99.90;;;;;;5058652;28;20041;-78
2021/08/29 02:44:17;;;;;;;6.82;1.50;;;16.10;99.90;;;;;;5068771;28;20036;-79
2021/08/29 02:46:43;;;;;;;3.03;1.15;;;16.00;99.90;;;;;;5061351;28;20102;-77
2021/08/29 02:49:09;;;;;;;3.10;1.08;;;16.00;99.90;;;;;;5050526;28;20124;-77
2021/08/29 02:51:35;;;;;;;3.10;1.30;;;16.00;99.90;;;;;;5068413;28;20040;-78
2021/08/29 02:54:01;;;;;;;2.80;1.38;;;16.00;99.90;;;;;;5072607;28;20048;-78
2021/08/29 02:56:30;;;;;;;2.30;1.77;;;16.00;99.90;;;;;;5060570;28;20044;-77
2021/08/29 02:58:55;;;;;;;1.95;1.45;;;16.00;99.90;;;;;;5066942;28;20458;-80
2021/08/29 03:01:21;;;;;;;1.92;1.25;;;16.00;99.90;;;;;;5052563;28;20051;-79
2021/08/29 03:03:47;;;;;;;;;;;16.00;99.90;;;;;;5052435;28;20383;-79
2021/08/29 03:06:13;;;;;;;1.40;0.93;;;16.00;99.90;;;;;;5052204;28;19917;-77
2021/08/29 03:08:38;;;;;;;;;;;16.10;99.90;;;;;;5052762;28;20136;-80
2021/08/29 03:11:04;;;;;;;1.73;1.23;;;16.10;99.90;;;;;;5052569;28;19916;-78
2021/08/29 03:13:30;;;;;;;;;;;16.00;99.90;;;;;;5035488;28;20441;-81
2021/08/29 03:15:56;;;;;;;2.42;1.08;;;16.10;99.90;;;;;;5052665;28;19931;-79
2021/08/29 03:18:22;;;;;;;;;;;16.10;99.90;;;;;;5051280;28;20366;-80
2021/08/29 03:20:49;;;;;;;1.45;1.35;;;16.10;99.90;;;;;;5035285;28;20007;-79
2021/08/29 03:23:15;;;;;;;1.20;0.98;;;16.10;99.90;;;;;;5050677;28;20386;-79
2021/08/29 03:25:41;;;;;;;1.15;1.10;;;16.10;99.90;;;;;;5062694;28;20049;-81
2021/08/29 03:28:07;;;;;;;;;;;16.10;99.90;;;;;;5039604;28;20037;-79
2021/08/29 03:30:32;;;;;;;1.65;0.82;;;16.10;99.90;;;;;;5068187;28;19926;-80
2021/08/29 03:32:58;;;;;;;;;;;16.10;99.90;;;;;;5055672;28;20425;-78
2021/08/29 03:35:26;;;;;;;1.38;1.00;;;16.10;99.90;;;;;;5057769;28;19974;-78
2021/08/29 03:37:53;;;;;;;1.80;0.82;;;16.20;99.90;;;;;;5042912;28;20048;-80
2021/08/29 03:40:19;;;;;;;1.33;0.98;;;16.20;99.90;;;;;;5058498;28;20045;-78
2021/08/29 03:42:47;;;;;;;4.50;0.95;;;16.20;99.90;;;;;;5054038;28;20120;-79
2021/08/29 03:45:13;;;;;;;3.15;1.35;;;16.20;99.90;;;;;;5045910;28;20033;-80
2021/08/29 03:47:39;;;;;;;14.07;1.73;;;16.20;99.90;;;;;;5053670;28;20497;-79
2021/08/29 03:50:05;;;;;;;2.00;0.95;;;16.20;99.90;;;;;;5065048;28;20029;-77
2021/08/29 03:52:32;;;;;;;1.17;1.08;;;16.10;99.90;;;;;;5044989;28;20040;-78
2021/08/29 03:54:58;;;;;;;2.20;1.25;;;16.20;99.90;;;;;;5064045;28;20402;-77
2021/08/29 03:57:24;;;;;;;2.30;1.90;;;16.20;99.90;;;;;;5055703;28;20044;-80
2021/08/29 03:59:50;;;;;;;2.95;1.08;;;16.20;99.90;;;;;;5059158;28;20043;-78
2021/08/29 04:02:16;;;;;;;2.08;0.95;;;16.20;99.90;;;;;;5049876;28;20037;-79
2021/08/29 04:04:42;;;;;;;3.45;1.35;;;16.20;99.90;;;;;;5068130;28;20041;-77
2021/08/29 04:07:09;;;;;;;2.67;1.52;;;16.20;99.90;;;;;;5059115;28;20049;-76
2021/08/29 04:09:36;;;;;;;0.80;0.80;;;16.20;99.90;;;;;;5065693;28;20095;-79
2021/08/29 04:12:03;;;;;;;1.77;1.35;;;16.20;99.90;;;;;;5063160;28;20045;-79
2021/08/29 04:14:29;;;;;;;4.55;1.35;;;16.20;99.90;;;;;;5061826;28;20040;-83
2021/08/29 04:16:57;;;;;;;1.92;1.10;;;16.20;99.90;;;;;;5065641;28;20115;-79
2021/08/29 04:19:24;;;;;;;1.55;1.42;;;16.20;99.90;;;;;;5053689;28;20041;-78
2021/08/29 04:21:50;;;;;;;1.27;1.02;;;16.10;99.90;;;;;;5051206;28;20041;-82
2021/08/29 04:24:16;;;;;;;3.42;1.00;;;16.20;99.90;;;;;;5061738;28;20123;-80
2021/08/29 04:26:42;;;;;;;2.22;1.52;;;16.10;99.90;;;;;;5052295;28;20124;-82
2021/08/29 04:29:08;;;;;;;;;;;16.20;99.90;;;;;;5051228;28;20047;-79
2021/08/29 04:31:34;;;;;;;1.30;1.20;;;16.10;99.90;;;;;;5082853;28;19916;-79
2021/08/29 04:34:06;;;;;;;3.75;2.03;;;16.10;99.90;;;;;;5061863;28;20060;-78
2021/08/29 04:36:34;;;;;;;2.63;1.30;;;16.10;99.90;;;;;;5058480;28;20181;-80
2021/08/29 04:39:01;;;;;;;8.55;2.03;;;15.90;99.90;;;;;;5064847;28;20063;-82
2021/08/29 04:41:27;;;;;;;2.10;0.73;;;15.70;99.90;;;;;;5057917;28;20056;-77
2021/08/29 04:43:53;;;;;;;6.10;2.28;;;15.50;99.90;;;;;;5058023;28;20040;-79
2021/08/29 04:46:18;;;;;;;;;;;15.20;99.90;;;;;;5052678;28;20524;-82
2021/08/29 04:48:44;;;;;;;2.10;1.05;;;15.10;99.90;;;;;;5080496;28;19938;-81
2021/08/29 04:51:09;;;;;;;;;;;15.00;99.90;;;;;;5051953;28;20060;-81
2021/08/29 04:53:35;;;;;;;2.65;1.20;;;15.00;99.90;;;;;;5050406;28;19991;-82
2021/08/29 04:56:01;;;;;;;;;;;14.90;99.90;;;;;;5048504;28;20052;-81
2021/08/29 04:58:26;;;;;;;1.15;1.05;;;14.90;99.90;;;;;;5067579;28;20325;-78
2021/08/29 05:00:52;;;;;;;1.85;1.05;;;14.90;99.90;;;;;;5049776;28;20227;-78
2021/08/29 05:03:18;;;;;;;0.85;0.85;;;14.90;99.90;;;;;;5049722;28;20037;-84
2021/08/29 05:05:43;;;;;;;;;;;14.90;99.90;;;;;;5050372;28;20045;-83
2021/08/29 05:08:09;;;;;;;1.83;1.27;;;15.00;99.90;;;;;;5051493;28;19927;-79
2021/08/29 05:10:35;;;;;;;2.75;1.27;;;15.00;99.90;;;;;;5050016;28;20041;-80
2021/08/29 05:13:00;;;;;;;2.85;1.48;;;15.00;99.90;;;;;;5033292;28;20045;-77
2021/08/29 05:15:27;;;;;;;2.13;1.88;;;15.10;99.90;;;;;;5033641;28;20037;-79
2021/08/29 05:17:52;;;;;;;5.93;2.05;;;15.10;99.90;;;;;;5032108;28;20498;-79
2021/08/29 05:20:18;;;;;;;1.75;1.15;;;15.20;99.90;;;;;;5042643;28;20037;-78
2021/08/29 05:22:44;;;;;;;1.23;0.85;;;15.20;99.90;;;;;;5059161;28;20040;-78
2021/08/29 05:25:10;;;;;;;2.30;1.02;;;15.20;99.90;;;;;;5048549;28;20110;-77
2021/08/29 05:27:35;;;;;;;7.03;1.35;;;15.20;99.90;;;;;;5061638;28;20040;-76
2021/08/29 05:30:01;;;;;;;2.60;1.02;;;15.20;99.90;;;;;;5053924;28;20425;-80
2021/08/29 05:32:27;;;;;;;;;;;15.20;99.90;;;;;;5062303;28;20852;-78
2021/08/29 05:34:53;;;;;;;4.47;1.67;;;15.30;99.90;;;;;;5064499;28;20004;-77
2021/08/29 05:37:18;;;;;;;;;;;15.20;99.90;;;;;;5066245;28;20044;-78
2021/08/29 05:39:44;;;;;;;0.80;0.70;;;15.20;99.90;;;;;;5066145;28;20020;-80
2021/08/29 05:42:10;;;;;;;0.80;0.80;;;15.20;99.90;;;;;;5032845;28;20099;-83
2021/08/29 05:44:35;;;;;;;2.30;0.73;;;15.20;99.90;;;;;;5050531;28;20044;-80
2021/08/29 05:47:01;;;;;;;1.77;1.17;;;15.20;99.90;;;;;;5050428;28;20476;-81
2021/08/29 05:49:27;;;;;;;;;;;15.20;99.90;;;;;;5034221;28;20040;-81
2021/08/29 05:51:52;;;;;;;4.38;1.75;;;15.20;99.90;;;;;;5051349;28;20012;-80
2021/08/29 05:54:18;;;;;;;3.30;0.70;;;15.20;99.90;;;;;;5050410;28;20053;-84
2021/08/29 05:56:44;;;;;;;;;;;15.20;99.90;;;;;;5033936;28;20045;-84
2021/08/29 05:59:09;;;;;;;3.30;1.75;;;15.20;99.90;;;;;;5052578;28;20011;-82
2021/08/29 06:01:35;;;;;;;;;;;15.20;99.90;;;;;;5051212;28;20445;-86
2021/08/29 06:04:01;;;;;;;0.60;0.60;;;15.20;99.90;;;;;;5065081;28;19959;-84
2021/08/29 06:06:27;;;;;;;2.72;1.13;;;15.10;99.90;;;;;;5008321;28;20056;-82
2021/08/29 06:08:52;;;;;;;;;;;15.10;99.90;;;;;;5045881;28;20098;-84
2021/08/29 06:11:18;;;;;;;2.30;1.40;;;15.10;99.90;;;;;;5051546;28;19916;-84
2021/08/29 06:13:44;;;;;;;2.70;1.33;;;15.10;99.90;;;;;;5051142;28;20041;-84
2021/08/29 06:16:10;;;;;;;1.15;1.05;;;15.10;99.90;;;;;;5030464;28;20041;-82
2021/08/29 06:18:35;;;;;;;8.32;2.22;;;15.20;99.90;;;;;;5037463;28;20060;-85
2021/08/29 06:21:01;;;;;;;;;;;15.20;99.90;;;;;;5057707;28;20072;-83
2021/08/29 06:23:28;;;;;;;11.15;2.63;;;15.20;99.90;;;;;;5044100;28;19926;-85
2021/08/29 06:25:54;;;;;;;2.85;1.73;;;15.20;99.90;;;;;;5065174;28;20064;-82
2021/08/29 06:28:19;;;;;;;2.47;0.85;;;15.20;99.90;;;;;;5035285;28;20479;-88
2021/08/29 06:30:45;;;;;;;2.00;1.33;;;15.10;99.90;;;;;;5042706;28;20080;-84
2021/08/29 06:33:11;;;;;;;1.42;1.13;;;15.10;99.90;;;;;;5061430;28;20116;-83
2021/08/29 06:35:37;;;;;;;2.58;1.40;;;15.10;99.90;;;;;;5067647;28;20080;-86
2021/08/29 06:38:02;;;;;;;1.30;1.20;;;15.10;99.90;;;;;;5066027;28;20123;-85
2021/08/29 06:40:28;;;;;;;;;;;15.10;99.90;;;;;;5057705;28;20098;-84
2021/08/29 06:42:53;;;;;;;6.72;2.10;;;15.10;99.90;;;;;;5052231;28;19923;-84
2021/08/29 06:45:19;;;;;;;0.75;0.75;;;15.10;99.90;;;;;;5032719;28;20041;-84
2021/08/29 06:47:45;;;;;;;;;;;15.10;99.90;;;;;;5036833;28;20095;-81
2021/08/29 06:50:10;;;;;;;1.50;1.40;;;15.10;99.90;;;;;;5037575;28;19932;-83
2021/08/29 06:52:36;;;;;;;1.67;1.15;;;15.10;99.90;;;;;;5056011;28;20048;-85
2021/08/29 06:55:02;;;;;;;1.13;1.05;;;15.20;99.90;;;;;;5037300;28;20473;-83
2021/08/29 06:57:29;;;;;;;;;;;15.20;99.90;;;;;;5053355;28;20471;-83
2021/08/29 06:59:55;;;;;;;4.93;2.53;;;15.20;99.90;;;;;;5053498;28;19956;-85
2021/08/29 07:02:21;;;;;;;4.65;1.52;;;15.20;99.90;;;;;;5035815;28;20104;-83
2021/08/29 07:04:48;;;;;;;3.95;2.17;;;15.20;99.90;;;;;;5053008;28;20159;-83
2021/08/29 07:07:13;;;;;;;;;;;15.20;99.90;;;;;;5050152;28;20099;-80
2021/08/29 07:09:41;;;;;;;6.30;2.22;;;15.20;99.90;;;;;;5043089;28;20550;-84
2021/08/29 07:12:09;;;;;;;2.85;2.08;;;15.20;99.90;;;;;;5070770;28;20089;-83
2021/08/29 07:14:34;;;;;;;3.55;1.77;;;15.20;99.90;;;;;;5057497;28;20040;-83
2021/08/29 07:17:00;;;;;;;2.53;2.05;;;15.20;99.90;;;;;;5054385;28;20665;-81
2021/08/29 07:19:26;;;;;;;1.73;1.55;;;15.20;99.90;;;;;;5046567;28;20525;-83
2021/08/29 07:21:52;;;;;;;;;;;15.20;99.90;;;;;;5060615;28;20037;-80
2021/08/29 07:24:17;;;;;;;4.32;2.55;;;15.20;99.90;;;;;;5056446;28;19987;-82
2021/08/29 07:26:43;;;;;;;;;;;15.20;99.90;;;;;;5051066;28;20421;-81
2021/08/29 07:29:09;;;;;;;6.28;2.75;;;15.20;99.90;;;;;;5058303;28;20277;-83
2021/08/29 07:31:34;;;;;;;3.45;1.75;;;15.30;99.90;;;;;;5057425;28;20490;-82
2021/08/29 07:34:00;;;;;;;1.83;1.30;;;15.30;99.90;;;;;;5071804;28;20082;-82
2021/08/29 07:36:26;;;;;;;6.05;2.10;;;15.30;99.90;;;;;;5057994;28;20068;-82
2021/08/29 07:38:53;;;;;;;2.13;1.52;;;15.40;99.90;;;;;;5042832;28;20041;-82
2021/08/29 07:41:18;;;;;;;7.40;2.45;;;15.40;99.90;;;;;;5041137;28;20119;-82
2021/08/29 07:43:44;;;;;;;2.05;1.52;;;15.40;99.90;;;;;;5044276;28;20128;-81
2021/08/29 07:46:09;;;;;;;;;;;15.50;99.90;;;;;;5066882;28;20428;-83
2021/08/29 07:48:36;;;;;;;1.70;1.38;;;15.60;99.90;;;;;;5063604;28;19916;-83
2021/08/29 07:51:02;;;;;;;1.98;1.65;;;15.60;99.90;;;;;;5052708;28;20526;-82
2021/08/29 07:53:28;;;;;;;2.05;1.85;;;15.60;99.90;;;;;;5055353;28;20111;-81
2021/08/29 07:55:53;;;;;;;;;;;15.70;99.90;;;;;;5036914;28;20117;-82
2021/08/29 07:58:19;;;;;;;1.48;1.10;;;15.80;99.90;;;;;;5053200;28;19924;-81
2021/08/29 08:00:44;;;;;;;;;;;15.90;99.90;;;;;;5050435;28;20495;-82
2021/08/29 08:03:10;;;;;;;5.28;1.45;;;15.90;99.90;;;;;;5101812;28;19916;-81
2021/08/29 08:05:36;;;;;;;;;;;15.90;99.90;;;;;;5037666;28;20048;-81
2021/08/29 08:08:02;;;;;;;2.47;1.63;;;15.90;99.90;;;;;;5095529;28;19921;-81
2021/08/29 08:10:30;;;;;;;1.20;1.10;;;16.00;99.90;;;;;;5057016;28;20041;-81
2021/08/29 08:12:55;;;;;;;9.38;2.30;;;16.20;99.90;;;;;;5065674;28;20133;-82
2021/08/29 08:15:21;;;;;;;1.92;1.40;;;16.30;99.90;;;;;;5053445;28;20091;-82
2021/08/29 08:17:47;;;;;;;1.55;1.42;;;16.40;99.90;;;;;;5058662;28;20102;-82
2021/08/29 08:20:13;;;;;;;;;;;16.60;99.90;;;;;;5043397;28;20483;-82
2021/08/29 08:22:40;;;;;;;2.15;1.48;;;16.60;99.90;;;;;;5065781;28;19965;-82
2021/08/29 08:25:06;;;;;;;8.20;2.13;;;16.60;99.90;;;;;;5061909;28;20052;-82
2021/08/29 08:27:32;;;;;;;1.83;1.20;;;16.70;99.90;;;;;;5077185;28;20063;-81
2021/08/29 08:29:57;;;;;;;3.60;1.67;;;16.70;99.90;;;;;;5054510;28;20491;-81
2021/08/29 08:32:23;;;;;;;;;;;16.80;99.90;;;;;;5048988;28;20119;-81
2021/08/29 08:34:49;;;;;;;4.93;1.38;;;16.80;99.90;;;;;;5055663;28;19960;-82
2021/08/29 08:37:14;;;;;;;;;;;16.80;99.90;;;;;;5057402;28;20132;-80
2021/08/29 08:39:40;;;;;;;2.33;1.73;;;16.80;99.90;;;;;;5085360;28;19959;-80
2021/08/29 08:42:06;;;;;;;;;;;16.70;99.90;;;;;;5056048;28;20037;-82
2021/08/29 08:44:32;;;;;;;1.73;1.38;;;16.60;99.90;;;;;;5052613;28;19916;-82
2021/08/29 08:47:04;;;;;;;1.27;0.95;;;16.60;99.90;;;;;;5056269;28;20045;-81
2021/08/29 08:49:33;;;;;;;3.25;1.48;;;16.50;99.90;;;;;;5055820;28;20132;-81
2021/08/29 08:52:02;;;;;;;2.13;1.30;;;16.40;99.90;;;;;;5057963;28;20052;-81
2021/08/29 08:54:29;;;;;;;2.60;0.90;;;16.30;99.90;;;;;;5050194;28;20394;-81
2021/08/29 08:56:56;;;;;;;1.83;1.45;;;16.30;99.90;;;;;;5085960;28;20052;-81
2021/08/29 08:59:22;;;;;;;3.08;1.17;;;16.20;99.90;;;;;;5038386;28;20040;-82
2021/08/29 09:01:48;;;;;;;;;;;16.10;99.90;;;;;;5052682;28;20104;-83
2021/08/29 09:04:15;;;;;;;1.00;0.82;;;16.10;99.90;;;;;;5055257;28;19920;-81
2021/08/29 09:06:41;;;;;;;1.17;1.02;;;16.20;99.90;;;;;;5019178;28;20461;-80
2021/08/29 09:09:07;;;;;;;1.08;0.98;;;16.20;99.90;;;;;;5052518;28;20028;-81
2021/08/29 09:11:36;;;;;;;1.50;1.15;;;16.30;99.90;;;;;;5051610;28;20470;-81
2021/08/29 09:14:03;;;;;;;8.63;1.27;;;16.30;99.90;;;;;;5058275;28;20372;-80
2021/08/29 09:16:29;;;;;;;1.70;1.15;;;16.40;99.90;;;;;;5048698;28;20045;-81
2021/08/29 09:19:03;;;;;;;2.53;1.85;;;16.50;99.90;;;;;;5025070;28;20041;-82
2021/08/29 09:21:30;;;;;;;1.83;1.45;;;16.60;99.90;;;;;;5050033;28;20049;-82
2021/08/29 09:23:58;;;;;;;1.10;0.90;;;16.70;99.90;;;;;;5038337;28;20037;-81
2021/08/29 09:26:29;;;;;;;0.95;0.85;;;16.70;99.90;;;;;;5051085;28;20399;-82
2021/08/29 09:28:59;;;;;;;2.00;1.67;;;16.80;99.90;;;;;;5032173;28;20049;-80
2021/08/29 09:31:48;;;;;;;1.30;1.13;;;16.80;99.90;;;;;;5054453;28;20471;-83
2021/08/29 09:34:19;;;;;;;1.73;1.08;;;16.80;99.90;;;;;;5044617;28;20480;-82
2021/08/29 09:36:49;;;;;;;1.58;0.85;;;16.80;99.90;;;;;;5045120;28;20391;-81
2021/08/29 09:39:18;;;;;;;1.73;1.40;;;16.80;99.90;;;;;;5037191;28;20145;-81
2021/08/29 09:41:45;;;;;;;1.42;0.80;;;16.80;99.90;;;;;;5049130;28;20356;-79
2021/08/29 09:44:13;;;;;;;0.70;0.70;;;16.80;99.90;;;;;;5053188;28;20033;-82
2021/08/29 09:47:01;;;;;;;1.30;0.93;;;16.80;99.90;;;;;;5056498;28;20057;-82
2021/08/29 09:49:30;;;;;;;0.93;0.88;;;16.80;99.90;;;;;;5048869;28;20068;-82
2021/08/29 09:51:59;;;;;;;1.02;0.88;;;16.70;99.90;;;;;;5063263;28;20049;-90
2021/08/29 09:54:37;;;;;;;1.13;1.00;;;16.70;99.90;;;;;;5051503;28;20102;-87
2021/08/29 09:57:07;;;;;;;0.80;0.73;;;16.70;99.90;;;;;;5032397;28;20052;-85
2021/08/29 09:59:37;;;;;;;0.77;0.77;;;16.60;99.90;;;;;;5050781;28;20044;-86
2021/08/29 10:02:03;;;;;;;1.02;0.70;;;16.60;99.90;;;;;;5050024;28;20041;-84
2021/08/29 10:04:29;;;;;;;;;;;16.60;99.90;;;;;;5031385;28;20044;-83
2021/08/29 10:06:54;;;;;;;9.02;1.17;;;16.60;99.90;;;;;;5049965;28;19917;-86
2021/08/29 10:09:27;;;;;;;;;;;16.60;99.90;;;;;;5052830;28;20548;-86
2021/08/29 10:11:53;;;;;;;3.55;1.58;;;16.60;99.90;;;;;;5054210;28;19924;-85
2021/08/29 10:14:22;;;;;;;1.33;1.23;;;16.60;99.90;;;;;;5054060;28;20051;-88
2021/08/29 10:16:48;;;;;;;2.55;0.95;;;16.70;99.90;;;;;;5033594;28;20069;-86
2021/08/29 10:19:18;;;;;;;2.17;1.38;;;16.70;99.90;;;;;;5045268;28;20033;-85
2021/08/29 10:21:45;;;;;;;1.63;1.10;;;16.80;99.90;;;;;;5032069;28;20059;-87
2021/08/29 10:24:14;;;;;;;1.48;0.70;;;16.80;99.90;;;;;;5053987;28;20494;-84
2021/08/29 10:26:42;;;;;;;5.13;1.00;;;16.80;99.90;;;;;;5054490;28;20055;-84
2021/08/29 10:29:13;;;;;;;1.45;1.25;;;16.80;99.90;;;;;;5037470;28;20053;-85
2021/08/29 10:31:48;;;;;;;1.13;0.90;;;16.80;99.90;;;;;;5053933;28;20635;-86
2021/08/29 10:34:15;;;;;;;1.25;1.00;;;16.80;99.90;;;;;;5063033;28;20426;-87
2021/08/29 10:36:42;;;;;;;2.95;1.60;;;16.80;99.90;;;;;;5054267;28;20041;-82
2021/08/29 10:39:07;;;;;;;2.33;1.50;;;16.80;99.90;;;;;;5054300;28;20059;-84
2021/08/29 10:41:34;;;;;;;1.83;1.42;;;16.80;99.90;;;;;;5035294;28;20036;-81
2021/08/29 10:44:00;;;;;;;1.92;1.20;;;16.80;99.90;;;;;;5050895;28;20403;-83
2021/08/29 10:46:26;;;;;;;1.73;1.25;;;16.80;99.90;;;;;;5051888;28;20045;-81
2021/08/29 10:48:53;;;;;;;3.25;1.40;;;16.80;99.90;;;;;;5032303;28;20486;-80
2021/08/29 10:51:23;;;;;;;2.15;1.70;;;16.80;99.90;;;;;;5050870;28;20113;-83
2021/08/29 10:53:54;;;;;;;2.13;1.40;;;16.80;99.90;;;;;;5052797;28;21666;-85
2021/08/29 10:56:25;;;;;;;1.20;0.95;;;16.80;99.90;;;;;;5051063;28;20164;-83
2021/08/29 10:59:09;;;;;;;1.63;1.33;;;16.60;99.90;;;;;;5050084;28;20048;-83
2021/08/29 11:01:50;;;;;;;1.50;1.02;;;16.50;99.90;;;;;;5049477;28;20406;-82
2021/08/29 11:04:19;;;;;;;1.80;1.38;;;16.50;99.90;;;;;;5038249;28;20048;-85
2021/08/29 11:06:51;;;;;;;2.42;1.10;;;16.40;99.90;;;;;;5038318;28;20032;-83
2021/08/29 11:09:29;;;;;;;1.73;1.50;;;16.40;99.90;;;;;;5053375;28;20048;-82
2021/08/29 11:11:55;;;;;;;1.38;1.17;;;16.40;99.90;;;;;;5054405;28;20044;-85
2021/08/29 11:14:48;;;;;;;2.72;1.88;;;16.50;99.90;;;;;;5058892;28;20371;-87
2021/08/29 11:17:28;;;;;;;1.35;1.00;;;16.70;99.90;;;;;;5059464;28;20052;-82
2021/08/29 11:20:01;;;;;;;2.25;1.38;;;16.80;99.90;;;;;;5042044;28;20093;-85
2021/08/29 11:22:27;;;;;;;3.42;1.33;;;16.90;99.90;;;;;;5041179;28;20067;-83
2021/08/29 11:25:00;;;;;;;1.15;0.98;;;17.00;99.90;;;;;;5071843;28;20041;-82
2021/08/29 11:27:39;;;;;;;2.78;1.15;;;17.00;99.90;;;;;;5056143;28;20466;-81
2021/08/29 11:30:16;;;;;;;3.38;1.45;;;17.00;99.90;;;;;;5056535;28;20402;-83
2021/08/29 11:32:45;;;;;;;0.98;0.90;;;17.00;99.90;;;;;;5050810;28;20047;-82
2021/08/29 11:35:17;;;;;;;7.80;2.38;;;17.00;99.90;;;;;;5067781;28;20053;-83
2021/08/29 11:38:00;;;;;;;2.13;1.45;;;17.00;99.90;;;;;;5052241;28;20119;-81
2021/08/29 11:40:48;;;;;;;1.92;1.33;;;16.90;99.90;;;;;;5055806;28;20053;-87
2021/08/29 11:43:31;;;;;;;2.13;1.77;;;16.90;99.90;;;;;;5054822;28;20059;-85
2021/08/29 11:45:58;;;;;;;4.25;1.75;;;16.90;99.90;;;;;;5051429;28;20072;-83
2021/08/29 11:48:27;;;;;;;1.92;1.63;;;16.90;99.90;;;;;;5041057;28;20033;-86
2021/08/29 11:50:53;;;;;;;2.22;1.13;;;16.90;99.90;;;;;;5050791;28;20036;-81
2021/08/29 11:53:20;;;;;;;1.65;1.33;;;16.90;99.90;;;;;;5050627;28;20142;-83
2021/08/29 11:55:46;;;;;;;2.38;1.55;;;16.90;99.90;;;;;;5056304;28;20049;-83
2021/08/29 11:58:20;;;;;;;1.92;1.08;;;17.00;99.90;;;;;;5056930;28;20071;-82
2021/08/29 12:00:47;;;;;;;2.50;1.83;;;16.90;99.90;;;;;;5036030;28;20784;-83
2021/08/29 12:03:16;;;;;;;2.15;1.40;;;17.00;99.90;;;;;;5038588;28;20049;-83
2021/08/29 12:06:07;;;;;;;2.30;1.60;;;17.20;99.90;;;;;;5016092;28;20037;-82
2021/08/29 12:08:47;;;;;;;2.95;1.55;;;17.40;99.90;;;;;;5035091;28;20048;-83
2021/08/29 12:11:14;;;;;;;2.13;1.33;;;17.60;99.90;;;;;;5054470;28;20047;-83
2021/08/29 12:13:39;;;;;;;7.25;1.70;;;17.70;99.90;;;;;;5033312;28;20077;-83
2021/08/29 12:16:06;;;;;;;6.05;2.42;;;17.70;99.90;;;;;;5050854;28;20075;-84
2021/08/29 12:18:36;;;;;;;2.50;1.95;;;17.70;99.90;;;;;;5048177;28;20037;-83
2021/08/29 12:21:05;;;;;;;4.15;1.63;;;17.70;99.90;;;;;;5092061;28;20028;-83
2021/08/29 12:23:32;;;;;;;2.38;1.30;;;17.70;99.90;;;;;;5058187;28;20048;-85
2021/08/29 12:26:00;;;;;;;2.63;1.40;;;17.60;99.90;;;;;;5044998;28;20048;-81
2021/08/29 12:28:26;;;;;;;1.55;1.23;;;17.50;99.90;;;;;;5050654;28;20407;-83
2021/08/29 12:30:55;;;;;;;2.28;1.83;;;17.50;99.90;;;;;;5051995;28;20124;-81
2021/08/29 12:33:22;;;;;;;1.90;1.63;;;17.60;99.90;;;;;;5038520;28;20569;-83
2021/08/29 12:35:48;;;;;;;1.98;1.48;;;17.50;99.90;;;;;;5065491;28;20087;-82
2021/08/29 12:38:24;;;;;;;;;;;17.50;99.90;;;;;;5065541;28;20053;-82
2021/08/29 12:40:52;;;;;;;2.22;1.67;;;17.60;99.90;;;;;;5085648;28;20010;-83
2021/08/29 12:43:18;;;;;;;3.88;1.60;;;17.70;99.90;;;;;;5053654;28;20047;-83
2021/08/29 12:45:44;;;;;;;;;;;17.70;99.90;;;;;;5072692;28;20045;-82
2021/08/29 12:48:10;;;;;;;7.15;2.47;;;17.80;99.90;;;;;;5098216;28;19947;-83
2021/08/29 12:50:56;;;;;;;2.58;1.58;;;17.80;99.90;;;;;;5060224;28;20041;-83
2021/08/29 12:53:24;;;;;;;3.23;1.40;;;17.90;99.90;;;;;;5060970;28;20048;-83
2021/08/29 12:55:52;;;;;;;4.50;2.28;;;17.90;99.90;;;;;;5079276;28;20048;-86
2021/08/29 12:58:23;;;;;;;2.78;1.80;;;17.90;99.90;;;;;;5050322;28;20036;-81
2021/08/29 13:00:58;;;;;;;11.05;2.28;;;17.80;99.90;;;;;;5055566;28;20087;-81
2021/08/29 13:03:23;;;;;;;8.07;1.80;;;17.80;99.90;;;;;;5055511;28;20542;-81